Flight Track Log - Related Links

Times and Time Zones

All times are in EDT time to prevent confusion due to time zone crossing. See the N516QS flight status page for this flight to view local times or setup timezone preferences in your user account.

Time Position Orientation Groundspeed Altitude Reporting Facility
EDT Latitude Longitude Course Direction KTS MPH feet Rate Location/Type
Wed 08:08:06 PM 41.0833 -73.7333 306° West 184 212 2,100  Level New York TRACON
Wed 08:09:38 PM 41.1353 -73.8292 306° West 210 242 6,400 2,784 Climbing Boston Center
Wed 08:10:39 PM 41.1961 -73.7972 22° Northeast 217 250 9,200 2,194 Climbing Boston Center
Wed 08:11:52 PM 41.2347 -73.6794 66° East 275 316 11,300 2,075 Climbing Boston Center
Wed 08:12:52 PM 41.2803 -73.5092 70° East 364 419 13,800 2,250 Climbing Boston Center
Wed 08:13:52 PM 41.3169 -73.3769 70° East 416 479 15,800 1,983 Climbing Boston Center
Wed 08:14:53 PM 41.3703 -73.2339 64° Northeast 433 498 17,800 1,444 Climbing Boston Center
Wed 08:16:05 PM 41.4378 -73.0658 62° Northeast 447 514 19,000 1,053 Climbing Boston Center
Wed 08:17:04 PM 41.5033 -72.8975 62° Northeast 454 522 20,100 1,412 Climbing Boston Center
Wed 08:18:04 PM 41.5664 -72.7397 62° Northeast 459 528 21,800 1,750 Climbing Boston Center
Wed 08:19:04 PM 41.6272 -72.5789 63° Northeast 472 543 23,600 1,091 Climbing Boston Center
Wed 08:20:05 PM 41.6981 -72.4150 60° Northeast 483 556 24,000 942 Climbing Boston Center
Wed 08:21:05 PM 41.7811 -72.2369 58° Northeast 499 574 25,500 1,525 Climbing Boston Center
Wed 08:22:03 PM 41.8536 -72.0694 60° Northeast 510 587 27,000 1,424 Climbing Boston Center
Wed 08:23:03 PM 41.9386 -71.9042 55° Northeast 520 598 28,300 1,140 Climbing Boston Center
Wed 08:24:04 PM 42.0544 -71.7664 41° Northeast 525 604 29,300 984 Climbing Boston Center
Wed 08:25:05 PM 42.1767 -71.6250 41° Northeast 545 627 30,300 958 Climbing Boston Center
Wed 08:26:03 PM 42.2944 -71.4997 38° Northeast 572 658 31,200 1,109 Climbing Boston Center
Wed 08:27:04 PM 42.4264 -71.3489 40° Northeast 598 688 32,500 1,500 Climbing Boston Center
Wed 08:28:03 PM 42.5522 -71.2056 40° Northeast 603 694 34,200 1,650 Climbing Boston Center
Wed 08:29:04 PM 42.6775 -71.0564 41° Northeast 598 688 35,800 1,525 Climbing Boston Center
Wed 08:30:05 PM 42.8028 -70.9064 41° Northeast 598 688 37,300 1,488 Climbing Boston Center
Wed 08:31:05 PM 42.9278 -70.7586 41° Northeast 598 688 38,800 1,513 Climbing Boston Center
Wed 08:32:04 PM 43.0486 -70.6189 40° Northeast 586 674 40,300 1,109 Climbing Boston Center
Wed 08:33:04 PM 43.1692 -70.4731 41° Northeast 575 662 41,000 350 Climbing Boston Center
Wed 08:34:04 PM 43.2894 -70.3264 42° Northeast 575 662 41,000  Level Boston Center
Wed 08:35:05 PM 43.4097 -70.1764 42° Northeast 575 662 41,000  Level Boston Center
Wed 08:36:03 PM 43.5256 -70.0347 42° Northeast 575 662 41,000  Level Boston Center
Wed 08:37:03 PM 43.6475 -69.8892 41° Northeast 570 656 41,000  Level Boston Center
Wed 08:38:04 PM 43.7692 -69.7403 41° Northeast 575 662 41,000  Level Boston Center
Wed 08:39:05 PM 43.8925 -69.5906 41° Northeast 575 662 41,000  Level Boston Center
Wed 08:40:03 PM 44.0117 -69.4433 42° Northeast 575 662 41,000  Level Boston Center
Wed 08:41:04 PM 44.1308 -69.2928 42° Northeast 575 662 41,000  Level Boston Center
Wed 08:42:05 PM 44.2517 -69.1444 41° Northeast 575 662 41,000  Level Boston Center
Wed 08:43:03 PM 44.3722 -68.9925 42° Northeast 575 662 41,000  Level Boston Center
Wed 08:44:03 PM 44.4925 -68.8397 42° Northeast 575 662 41,000  Level Boston Center
Wed 08:45:04 PM 44.6128 -68.6836 43° Northeast 581 669 41,000  Level Boston Center
Wed 08:46:04 PM 44.7347 -68.5297 42° Northeast 581 669 41,000  Level Boston Center
Wed 08:47:05 PM 44.8544 -68.3781 42° Northeast 581 669 41,000  Level Boston Center
Wed 08:48:03 PM 44.9742 -68.2231 42° Northeast 581 669 41,000  Level Boston Center
Wed 08:48:49 PM 45.0667 -68.0833 47° Northeast 590 679 41,000  Level Moncton Center
Wed 08:49:49 PM 45.1833 -67.9333 42° Northeast 590 679 41,000  Level Moncton Center
Wed 08:50:49 PM 45.3000 -67.7667 45° Northeast 590 679 41,000  Level Moncton Center
Wed 08:51:49 PM 45.4500 -67.6333 32° Northeast 580 667 41,000  Level Moncton Center
Wed 08:52:49 PM 45.5667 -67.5000 39° Northeast 590 679 41,000  Level Moncton Center
Wed 08:53:49 PM 45.7000 -67.3667 35° Northeast 580 667 41,000  Level Moncton Center
Wed 08:54:49 PM 45.8333 -67.2500 31° Northeast 580 667 41,000  Level Moncton Center
Wed 08:55:49 PM 45.9833 -67.1167 32° Northeast 580 667 41,000  Level Moncton Center
Wed 08:56:49 PM 46.1167 -66.9833 35° Northeast 580 667 41,000  Level Moncton Center
Wed 08:57:49 PM 46.2333 -66.8667 35° Northeast 590 679 41,000  Level Moncton Center
Wed 08:58:49 PM 46.3833 -66.7333 32° Northeast 590 679 41,000  Level Moncton Center
Wed 08:59:49 PM 46.5000 -66.5833 41° Northeast 580 667 41,000  Level Moncton Center
Wed 09:00:49 PM 46.6500 -66.4500 31° Northeast 580 667 41,000  Level Moncton Center
Wed 09:01:49 PM 46.7833 -66.3333 31° Northeast 590 679 41,000  Level Moncton Center
Wed 09:02:49 PM 46.9167 -66.1833 38° Northeast 580 667 41,000  Level Moncton Center
Wed 09:03:49 PM 47.0500 -66.0500 34° Northeast 580 667 41,000  Level Moncton Center
Wed 09:04:49 PM 47.1667 -65.9167 38° Northeast 580 667 41,000  Level Moncton Center
Wed 09:05:49 PM 47.3167 -65.7833 31° Northeast 580 667 41,000  Level Moncton Center
Wed 09:06:49 PM 47.4500 -65.6667 31° Northeast 580 667 41,000  Level Moncton Center
Wed 09:07:49 PM 47.5833 -65.5167 37° Northeast 580 667 41,000  Level Moncton Center
Wed 09:08:49 PM 47.7167 -65.3667 37° Northeast 570 656 41,000  Level Moncton Center
Wed 09:09:49 PM 47.8333 -65.2500 34° Northeast 580 667 41,000  Level Moncton Center
Wed 09:10:49 PM 47.9667 -65.1000 37° Northeast 580 667 41,000  Level Moncton Center
Wed 09:11:49 PM 48.1000 -64.9500 37° Northeast 580 667 41,000  Level Moncton Center
Wed 09:12:49 PM 48.2333 -64.8167 34° Northeast 570 656 41,000  Level Moncton Center
Wed 09:13:49 PM 48.3500 -64.6667 40° Northeast 570 656 41,000  Level Moncton Center
Wed 09:14:49 PM 48.4833 -64.5167 37° Northeast 570 656 41,000  Level Moncton Center
Wed 09:15:49 PM 48.6167 -64.4000 30° Northeast 570 656 41,000  Level Moncton Center
Wed 09:16:49 PM 48.7500 -64.2500 37° Northeast 570 656 41,000  Level Moncton Center
Wed 09:17:49 PM 48.8667 -64.1167 37° Northeast 570 656 41,000  Level Moncton Center
Wed 09:18:49 PM 49.0000 -63.9667 36° Northeast 560 644 41,000  Level Moncton Center
Wed 09:19:49 PM 49.1167 -63.8333 37° Northeast 560 644 41,000  Level Moncton Center
Wed 09:20:49 PM 49.2500 -63.6833 36° Northeast 570 656 41,000  Level Moncton Center
Wed 09:21:49 PM 49.3833 -63.5500 33° Northeast 570 656 41,000  Level Moncton Center
Wed 09:22:49 PM 49.5167 -63.3833 39° Northeast 570 656 41,000  Level Moncton Center
Wed 09:23:49 PM 49.6333 -63.2667 33° Northeast 570 656 41,000  Level Moncton Center
Wed 09:24:49 PM 49.7667 -63.1000 39° Northeast 580 667 41,000  Level Moncton Center
Wed 09:25:49 PM 49.9000 -62.9333 39° Northeast 590 679 41,000  Level Moncton Center
Wed 09:26:49 PM 50.0333 -62.7833 36° Northeast 580 667 41,000  Level Moncton Center
Wed 09:27:49 PM 50.1667 -62.6500 33° Northeast 590 679 41,000  Level Moncton Center
Wed 09:28:49 PM 50.3000 -62.4833 39° Northeast 590 679 41,000  Level Moncton Center
Wed 09:29:49 PM 50.4333 -62.3167 39° Northeast 580 667 41,000  Level Moncton Center
Wed 09:30:49 PM 50.5333 -62.1833 40° Northeast 580 667 41,000  Level Moncton Center
Wed 09:31:49 PM 50.6667 -62.0167 38° Northeast 580 667 41,000  Level Moncton Center
Wed 09:32:49 PM 50.8000 -61.8833 32° Northeast 570 656 41,000  Level Moncton Center
Wed 09:33:49 PM 50.9333 -61.7167 38° Northeast 580 667 41,000  Level Moncton Center
Wed 09:34:49 PM 51.0500 -61.5667 39° Northeast 580 667 41,000  Level Moncton Center
Wed 09:35:49 PM 51.1833 -61.4000 38° Northeast 570 656 41,000  Level Moncton Center
Wed 09:36:49 PM 51.3000 -61.2333 42° Northeast 570 656 41,000  Level Moncton Center
Wed 09:37:49 PM 51.4167 -61.1000 35° Northeast 570 656 41,000  Level Moncton Center
Wed 09:38:49 PM 51.5500 -60.9333 38° Northeast 560 644 41,000  Level Moncton Center
Wed 09:39:49 PM 51.6833 -60.7833 35° Northeast 560 644 41,000  Level Moncton Center
Wed 09:40:49 PM 51.7833 -60.6167 46° Northeast 560 644 41,000  Level Moncton Center
Wed 09:41:49 PM 51.9167 -60.4667 35° Northeast 560 644 41,000  Level Moncton Center
Wed 09:42:49 PM 52.0333 -60.3167 38° Northeast 540 621 41,000  Level Moncton Center
Wed 09:43:49 PM 52.1500 -60.1667 38° Northeast 540 621 41,000  Level Moncton Center
Wed 09:44:49 PM 52.2500 -60.0000 46° Northeast 540 621 41,000  Level Moncton Center
Wed 09:45:49 PM 52.3667 -59.8500 38° Northeast 540 621 41,000  Level Moncton Center
Wed 09:46:49 PM 52.5000 -59.7000 34° Northeast 520 598 41,000  Level Moncton Center
Wed 09:48:22 PM 52.6667 -59.4667 40° Northeast 530 610 41,000  Level Gander Center
Wed 09:49:22 PM 52.7833 -59.3000 41° Northeast 530 610 41,000  Level Gander Center
Wed 09:50:22 PM 52.9000 -59.1500 38° Northeast 530 610 41,000  Level Gander Center
Wed 09:51:21 PM 53.0000 -58.9833 45° Northeast 530 610 41,000  Level Gander Center
Wed 09:52:21 PM 53.1167 -58.8333 38° Northeast 530 610 41,000  Level Gander Center
Wed 09:53:21 PM 53.2167 -58.6833 42° Northeast 530 610 41,000  Level Gander Center
Wed 09:54:21 PM 53.3500 -58.5167 37° Northeast 530 610 41,000  Level Gander Center
Wed 09:55:21 PM 53.4500 -58.3667 42° Northeast 530 610 41,000  Level Gander Center
Wed 09:56:21 PM 53.5500 -58.1833 47° Northeast 530 610 41,000  Level Gander Center
Wed 09:57:21 PM 53.6667 -58.0167 40° Northeast 540 621 41,000  Level Gander Center
Wed 09:58:21 PM 53.7667 -57.8000 52° Northeast 540 621 41,000  Level Gander Center
Wed 09:59:21 PM 53.8500 -57.6000 55° Northeast 530 610 41,000  Level Gander Center
Wed 10:00:21 PM 53.9333 -57.3833 57° Northeast 530 610 41,000  Level Gander Center
Wed 10:01:21 PM 54.0333 -57.2167 44° Northeast 530 610 41,000  Level Gander Center
Wed 10:02:21 PM 54.1167 -56.9667 60° Northeast 530 610 41,000  Level Gander Center
Wed 10:03:21 PM 54.2000 -56.8000 49° Northeast 540 621 41,000  Level Gander Center
Wed 10:04:21 PM 54.3000 -56.5833 52° Northeast 540 621 41,000  Level Gander Center
Wed 10:05:21 PM 54.3833 -56.3667 56° Northeast 540 621 41,000  Level Gander Center
Wed 10:06:21 PM 54.4667 -56.1833 52° Northeast 530 610 41,000  Level Gander Center
Wed 10:07:21 PM 54.5500 -55.9500 58° Northeast 530 610 41,000  Level Gander Center
Wed 10:08:21 PM 54.6333 -55.7333 56° Northeast 540 621 41,000  Level Gander Center
Wed 10:09:21 PM 54.7000 -55.5000 64° Northeast 550 633 41,000  Level Gander Center
Wed 10:10:21 PM 54.7667 -55.2500 65° Northeast 570 656 41,000  Level Gander Center
Wed 10:11:21 PM 54.8333 -55.0167 64° Northeast 570 656 41,000  Level Gander Center
Wed 10:12:21 PM 54.9000 -54.7333 68° East 570 656 41,000  Level Gander Center
Wed 10:13:21 PM 54.9500 -54.5333 66° East 560 644 41,000  Level Gander Center
Wed 10:14:21 PM 55.0167 -54.2500 68° East 560 644 41,000  Level Gander Center
Wed 10:15:00 PM 54.6167 -55.8667 65° Northeast 565 650 41,000  Level ETMS Enhanced Traffic Management System
Wed 10:15:49 PM 55.1167 -53.9000 65° Northeast 560 644 41,000  Level Moncton Center
Wed 10:17:21 PM 55.2000 -53.5167 69° East 560 644 41,000  Level Gander Center
Wed 10:18:21 PM 55.2667 -53.2333 67° East 560 644 41,000  Level Gander Center
Wed 10:19:21 PM 55.3167 -53.0000 69° East 560 644 41,000  Level Gander Center
Wed 10:20:21 PM 55.3833 -52.7500 65° Northeast 560 644 41,000  Level Gander Center
Wed 10:21:21 PM 55.4333 -52.5000 70° East 560 644 41,000  Level Gander Center
Wed 10:23:00 PM 55.5253 -52.1137 67° East  Level FlightAware Approximate
Wed 10:30:00 PM 55.9019 -50.4548 67° East  Level FlightAware Approximate
Wed 10:31:00 PM 55.9538 -50.2153 69° East  Level FlightAware Approximate
Wed 10:32:00 PM 56.0061 -49.9757 66° East  Level FlightAware Approximate
Wed 10:33:00 PM 56.0651 -49.7407 66° East  Level FlightAware Approximate
Wed 10:34:00 PM 56.1237 -49.5051 66° East  Level FlightAware Approximate
Wed 10:35:00 PM 56.1818 -49.2686 66° East  Level FlightAware Approximate
Wed 10:36:00 PM 56.2394 -49.0315 66° East  Level FlightAware Approximate
Wed 10:37:00 PM 56.2966 -48.7937 66° East  Level FlightAware Approximate
Wed 10:38:00 PM 56.3533 -48.5551 67° East  Level FlightAware Approximate
Wed 10:38:00 PM 56.0000 -50.0000 66° East 534 615 41,000  Level ETMS Enhanced Traffic Management System
Wed 10:39:00 PM 56.4095 -48.3159 67° East  Level FlightAware Approximate
Wed 10:40:00 PM 56.4654 -48.0759 67° East  Level FlightAware Approximate
Wed 10:41:00 PM 56.5207 -47.8352 67° East  Level FlightAware Approximate
Wed 10:42:00 PM 56.5756 -47.5939 67° East  Level FlightAware Approximate
Wed 10:43:00 PM 56.6300 -47.3518 68° East  Level FlightAware Approximate
Wed 10:44:00 PM 56.8088 -46.5355 69° East 534 615 41,000  Level FlightAware Transoceanic
Wed 10:45:00 PM 56.8629 -46.2824 69° East 534 615 41,000  Level FlightAware Transoceanic
Wed 10:46:00 PM 56.9164 -46.0286 69° East 534 615 41,000  Level FlightAware Transoceanic
Wed 10:47:00 PM 56.9694 -45.7741 69° East 534 615 41,000  Level FlightAware Transoceanic
Wed 10:48:00 PM 57.0219 -45.5189 69° East 534 615 41,000  Level FlightAware Transoceanic
Wed 10:49:00 PM 57.0738 -45.2630 70° East 534 615 41,000  Level FlightAware Transoceanic
Wed 10:50:00 PM 57.1253 -45.0063 70° East 534 615 41,000  Level FlightAware Transoceanic
Wed 10:51:00 PM 57.1762 -44.7490 70° East 534 615 41,000  Level FlightAware Transoceanic
Wed 10:52:00 PM 57.2266 -44.4909 70° East 534 615 41,000  Level FlightAware Transoceanic
Wed 10:53:00 PM 57.2764 -44.2321 71° East 534 615 41,000  Level FlightAware Transoceanic
Wed 10:54:00 PM 57.3258 -43.9726 71° East 534 615 41,000  Level FlightAware Transoceanic
Wed 10:55:00 PM 57.3745 -43.7125 71° East 534 615 41,000  Level FlightAware Transoceanic
Wed 10:56:00 PM 57.4228 -43.4516 71° East 534 615 41,000  Level FlightAware Transoceanic
Wed 10:57:00 PM 57.4705 -43.1901 71° East 534 615 41,000  Level FlightAware Transoceanic
Wed 10:58:00 PM 57.5177 -42.9278 72° East 534 615 41,000  Level FlightAware Transoceanic
Wed 10:59:00 PM 57.5643 -42.6649 72° East 534 615 41,000  Level FlightAware Transoceanic
Wed 11:00:00 PM 57.6104 -42.4014 72° East 534 615 41,000  Level FlightAware Transoceanic
Wed 11:01:00 PM 57.6559 -42.1371 72° East 534 615 41,000  Level FlightAware Transoceanic
Wed 11:02:00 PM 57.7009 -41.8722 72° East 534 615 41,000  Level FlightAware Transoceanic
Wed 11:03:00 PM 57.7453 -41.6067 73° East 534 615 41,000  Level FlightAware Transoceanic
Wed 11:04:00 PM 57.7891 -41.3405 73° East 534 615 41,000  Level FlightAware Transoceanic
Wed 11:05:00 PM 57.8324 -41.0737 73° East 534 615 41,000  Level FlightAware Transoceanic
Wed 11:06:00 PM 57.8752 -40.8062 73° East 534 615 41,000  Level FlightAware Transoceanic
Wed 11:07:00 PM 57.9174 -40.5381 74° East 534 615 41,000  Level FlightAware Transoceanic
Wed 11:08:00 PM 57.9590 -40.2693 74° East 534 615 41,000  Level FlightAware Transoceanic
Wed 11:09:00 PM 57.9987 -40.0085 74° East  Level FlightAware Approximate
Wed 11:10:00 PM 58.0379 -39.7470 74° East  Level FlightAware Approximate
Wed 11:11:00 PM 58.0348 -39.7546 75° East  Level FlightAware Approximate
Wed 11:12:00 PM 58.0714 -39.4915 75° East  Level FlightAware Approximate
Wed 11:13:00 PM 58.1075 -39.2280 75° East  Level FlightAware Approximate
Wed 11:13:00 PM 58.0000 -40.0000 75° East 531 611 41,000  Level ETMS Enhanced Traffic Management System
Wed 11:14:00 PM 58.1431 -38.9639 76° East  Level FlightAware Approximate
Wed 11:15:00 PM 58.1781 -38.6993 76° East  Level FlightAware Approximate
Wed 11:16:00 PM 58.2126 -38.4341 76° East  Level FlightAware Approximate
Wed 11:17:00 PM 58.2465 -38.1685 76° East  Level FlightAware Approximate
Wed 11:18:00 PM 58.2799 -37.9023 76° East  Level FlightAware Approximate
Wed 11:19:00 PM 58.3223 -37.5565 77° East 531 611 41,000  Level FlightAware Transoceanic
Wed 11:20:00 PM 58.3552 -37.2823 77° East 531 611 41,000  Level FlightAware Transoceanic
Wed 11:21:00 PM 58.3875 -37.0077 77° East 531 611 41,000  Level FlightAware Transoceanic
Wed 11:22:00 PM 58.4193 -36.7325 78° East 531 611 41,000  Level FlightAware Transoceanic
Wed 11:23:00 PM 58.4504 -36.4568 78° East 531 611 41,000  Level FlightAware Transoceanic
Wed 11:24:00 PM 58.4810 -36.1807 78° East 531 611 41,000  Level FlightAware Transoceanic
Wed 11:25:00 PM 58.5109 -35.9040 78° East 531 611 41,000  Level FlightAware Transoceanic
Wed 11:26:00 PM 58.5403 -35.6269 79° East 531 611 41,000  Level FlightAware Transoceanic
Wed 11:27:00 PM 58.5690 -35.3494 79° East 531 611 41,000  Level FlightAware Transoceanic
Wed 11:28:00 PM 58.5972 -35.0714 79° East 531 611 41,000  Level FlightAware Transoceanic
Wed 11:29:00 PM 58.6248 -34.7929 79° East 531 611 41,000  Level FlightAware Transoceanic
Wed 11:30:00 PM 58.6517 -34.5140 80° East 531 611 41,000  Level FlightAware Transoceanic
Wed 11:31:00 PM 58.6781 -34.2347 80° East 531 611 41,000  Level FlightAware Transoceanic
Wed 11:32:00 PM 58.7038 -33.9550 80° East 531 611 41,000  Level FlightAware Transoceanic
Wed 11:33:00 PM 58.7290 -33.6749 80° East 531 611 41,000  Level FlightAware Transoceanic
Wed 11:34:00 PM 58.7535 -33.3943 81° East 531 611 41,000  Level FlightAware Transoceanic
Wed 11:35:00 PM 58.7775 -33.1134 81° East 531 611 41,000  Level FlightAware Transoceanic
Wed 11:36:00 PM 58.8008 -32.8321 81° East 531 611 41,000  Level FlightAware Transoceanic
Wed 11:37:00 PM 58.8235 -32.5504 81° East 531 611 41,000  Level FlightAware Transoceanic
Wed 11:38:00 PM 58.8456 -32.2684 82° East 531 611 41,000  Level FlightAware Transoceanic
Wed 11:39:00 PM 58.8670 -31.9860 82° East 531 611 41,000  Level FlightAware Transoceanic
Wed 11:40:00 PM 58.8879 -31.7032 82° East 531 611 41,000  Level FlightAware Transoceanic
Wed 11:41:00 PM 58.9081 -31.4201 82° East 531 611 41,000  Level FlightAware Transoceanic
Wed 11:42:00 PM 58.9277 -31.1367 82° East 531 611 41,000  Level FlightAware Transoceanic
Wed 11:43:00 PM 58.9467 -30.8530 83° East 531 611 41,000  Level FlightAware Transoceanic
Wed 11:44:00 PM 58.9651 -30.5690 83° East 531 611 41,000  Level FlightAware Transoceanic
Wed 11:45:00 PM 58.9829 -30.2846 83° East 531 611 41,000 669 Level FlightAware Transoceanic
Wed 11:46:00 PM 58.9994 -30.0107 83° East  Level FlightAware Approximate
Wed 11:47:00 PM 59.0153 -29.7365 83° East  Level FlightAware Approximate
Wed 11:48:00 PM 59.0343 -29.7543 75° East  Level FlightAware Approximate
Wed 11:49:00 PM 59.0709 -29.4874 75° East  Level FlightAware Approximate
Wed 11:49:59 PM 59.0000 -30.0000 75° East 502 578 45,000  Level ETMS Enhanced Traffic Management System
Wed 11:50:00 PM 59.1070 -29.2199 75° East  Level FlightAware Approximate
Wed 11:51:00 PM 59.1425 -28.9518 75° East  Level FlightAware Approximate
Wed 11:52:00 PM 59.1775 -28.6831 76° East  Level FlightAware Approximate
Wed 11:53:00 PM 59.2119 -28.4139 76° East  Level FlightAware Approximate
Wed 11:54:00 PM 59.2458 -28.1442 76° East  Level FlightAware Approximate
Wed 11:55:00 PM 59.2791 -27.8739 76° East  Level FlightAware Approximate
Wed 11:56:00 PM 59.3450 -27.3588 77° East 502 578 45,000  Level FlightAware Transoceanic
Wed 11:57:00 PM 59.3765 -27.0918 77° East 502 578 45,000  Level FlightAware Transoceanic
Wed 11:58:00 PM 59.4075 -26.8243 77° East 502 578 45,000  Level FlightAware Transoceanic
Wed 11:59:00 PM 59.4379 -26.5564 78° East 502 578 45,000  Level FlightAware Transoceanic
Thu 12:00:00 AM 59.4678 -26.2879 78° East 502 578 45,000  Level FlightAware Transoceanic
Thu 12:01:00 AM 59.4971 -26.0190 78° East 502 578 45,000  Level FlightAware Transoceanic
Thu 12:02:00 AM 59.5259 -25.7497 78° East 502 578 45,000  Level FlightAware Transoceanic
Thu 12:03:00 AM 59.5541 -25.4798 78° East 502 578 45,000  Level FlightAware Transoceanic
Thu 12:04:00 AM 59.5818 -25.2096 79° East 502 578 45,000  Level FlightAware Transoceanic
Thu 12:05:00 AM 59.6089 -24.9389 79° East 502 578 45,000  Level FlightAware Transoceanic
Thu 12:06:00 AM 59.6355 -24.6677 79° East 502 578 45,000  Level FlightAware Transoceanic
Thu 12:07:00 AM 59.6614 -24.3961 79° East 502 578 45,000  Level FlightAware Transoceanic
Thu 12:08:00 AM 59.6869 -24.1241 80° East 502 578 45,000  Level FlightAware Transoceanic
Thu 12:09:00 AM 59.7118 -23.8517 80° East 502 578 45,000  Level FlightAware Transoceanic
Thu 12:10:00 AM 59.7360 -23.5790 80° East 502 578 45,000  Level FlightAware Transoceanic
Thu 12:11:00 AM 59.7598 -23.3058 80° East 502 578 45,000  Level FlightAware Transoceanic
Thu 12:12:00 AM 59.7830 -23.0322 81° East 502 578 45,000  Level FlightAware Transoceanic
Thu 12:13:00 AM 59.8056 -22.7582 81° East 502 578 45,000  Level FlightAware Transoceanic
Thu 12:14:00 AM 59.8276 -22.4839 81° East 502 578 45,000  Level FlightAware Transoceanic
Thu 12:15:00 AM 59.8490 -22.2092 81° East 502 578 45,000  Level FlightAware Transoceanic
Thu 12:16:00 AM 59.8699 -21.9342 82° East 502 578 45,000  Level FlightAware Transoceanic
Thu 12:17:00 AM 59.8902 -21.6588 82° East 502 578 45,000  Level FlightAware Transoceanic
Thu 12:18:00 AM 59.9100 -21.3832 82° East 502 578 45,000  Level FlightAware Transoceanic
Thu 12:19:00 AM 59.9291 -21.1071 82° East 502 578 45,000  Level FlightAware Transoceanic
Thu 12:20:00 AM 59.9477 -20.8308 82° East 502 578 45,000  Level FlightAware Transoceanic
Thu 12:21:00 AM 59.9657 -20.5542 83° East 502 578 45,000  Level FlightAware Transoceanic
Thu 12:22:00 AM 59.9832 -20.2772 83° East 502 578 45,000  Level FlightAware Transoceanic
Thu 12:23:00 AM 60.0003 -19.9952 83° East  Level FlightAware Approximate
Thu 12:24:00 AM 60.0013 -19.9906 75° East  Level FlightAware Approximate
Thu 12:25:00 AM 60.0385 -19.7162 75° East  Level FlightAware Approximate
Thu 12:26:00 AM 60.0752 -19.4412 75° East  Level FlightAware Approximate
Thu 12:27:00 AM 60.1113 -19.1655 75° East  Level FlightAware Approximate
Thu 12:28:00 AM 60.1468 -18.8893 75° East  Level FlightAware Approximate
Thu 12:29:00 AM 60.1818 -18.6125 76° East  Level FlightAware Approximate
Thu 12:30:00 AM 60.2161 -18.3351 76° East  Level FlightAware Approximate
Thu 12:31:00 AM 60.2499 -18.0571 76° East  Level FlightAware Approximate
Thu 12:32:00 AM 60.2831 -17.7785 76° East  Level FlightAware Approximate
Thu 12:33:00 AM 60.3157 -17.4994 77° East  Level FlightAware Approximate
Thu 12:34:00 AM 60.3478 -17.2197 77° East  Level FlightAware Approximate
Thu 12:35:00 AM 60.3788 -16.9393 77° East  Level FlightAware Approximate
Thu 12:36:00 AM 60.4093 -16.6584 78° East  Level FlightAware Approximate
Thu 12:37:00 AM 60.4392 -16.3769 78° East  Level FlightAware Approximate
Thu 12:38:00 AM 60.4684 -16.0950 78° East  Level FlightAware Approximate
Thu 12:39:00 AM 60.4971 -15.8125 78° East  Level FlightAware Approximate
Thu 12:40:00 AM 60.5267 -15.5302 78° East  Level FlightAware Approximate
Thu 12:41:00 AM 60.5560 -15.2474 78° East  Level FlightAware Approximate
Thu 12:42:00 AM 60.5846 -14.9642 78° East  Level FlightAware Approximate
Thu 12:43:00 AM 60.6127 -14.6805 78° East  Level FlightAware Approximate
Thu 12:44:00 AM 60.6401 -14.3962 79° East  Level FlightAware Approximate
Thu 12:45:00 AM 60.6669 -14.1115 79° East  Level FlightAware Approximate
Thu 12:46:00 AM 60.6932 -13.8263 79° East  Level FlightAware Approximate
Thu 12:47:00 AM 60.7188 -13.5407 79° East  Level FlightAware Approximate
Thu 12:48:00 AM 60.7438 -13.2546 80° East  Level FlightAware Approximate
Thu 12:49:00 AM 60.7682 -12.9681 80° East  Level FlightAware Approximate
Thu 12:50:00 AM 60.7920 -12.6811 80° East  Level FlightAware Approximate
Thu 12:51:00 AM 60.8152 -12.3937 80° East  Level FlightAware Approximate
Thu 12:52:00 AM 60.8377 -12.1059 81° East  Level FlightAware Approximate
Thu 12:53:00 AM 60.8597 -11.8177 81° East  Level FlightAware Approximate
Thu 12:54:00 AM 60.8810 -11.5291 81° East  Level FlightAware Approximate
Thu 12:55:00 AM 60.9017 -11.2402 81° East  Level FlightAware Approximate
Thu 12:56:00 AM 60.9218 -10.9508 82° East  Level FlightAware Approximate
Thu 12:57:00 AM 60.9413 -10.6611 82° East  Level FlightAware Approximate
Thu 12:58:00 AM 60.9602 -10.3711 82° East  Level FlightAware Approximate
Thu 12:59:00 AM 60.9784 -10.0807 83° East  Level FlightAware Approximate
Thu 01:00:00 AM 60.9953 -9.7898 83° East  Level FlightAware Approximate
Thu 01:01:00 AM 61.0112 -9.4986 83° East  Level FlightAware Approximate
Thu 01:02:00 AM 61.0266 -9.2070 84° East  Level FlightAware Approximate
Thu 01:03:00 AM 61.0413 -8.9152 84° East  Level FlightAware Approximate
Thu 01:04:00 AM 61.0554 -8.6231 84° East  Level FlightAware Approximate
Thu 01:05:00 AM 61.0689 -8.3308 84° East  Level FlightAware Approximate
Thu 01:06:00 AM 61.0817 -8.0382 85° East  Level FlightAware Approximate
Thu 01:07:00 AM 61.0939 -7.7454 85° East  Level FlightAware Approximate
Thu 01:08:00 AM 61.1055 -7.4523 85° East  Level FlightAware Approximate
Thu 01:09:00 AM 61.1164 -7.1591 85° East  Level FlightAware Approximate
Thu 01:10:00 AM 61.1267 -6.8656 86° East  Level FlightAware Approximate
Thu 01:11:00 AM 61.1364 -6.5720 86° East  Level FlightAware Approximate
Thu 01:12:00 AM 61.1454 -6.2782 86° East  Level FlightAware Approximate
Thu 01:13:00 AM 61.1538 -5.9843 86° East  Level FlightAware Approximate
Thu 01:14:00 AM 61.1616 -5.6901 87° East  Level FlightAware Approximate
Thu 01:15:00 AM 61.1687 -5.3959 87° East  Level FlightAware Approximate
Thu 01:16:00 AM 61.1751 -5.1015 87° East  Level FlightAware Approximate
Thu 01:17:00 AM 61.1810 -4.8070 88° East  Level FlightAware Approximate
Thu 01:18:00 AM 61.1862 -4.5124 88° East  Level FlightAware Approximate
Thu 01:19:00 AM 61.1907 -4.2177 88° East  Level FlightAware Approximate
Thu 01:20:00 AM 61.1946 -3.9230 88° East  Level FlightAware Approximate
Thu 01:21:00 AM 61.1979 -3.6281 89° East  Level FlightAware Approximate
Thu 01:22:00 AM 61.2008 -3.3333 89° East  Level FlightAware Approximate
Thu 01:23:00 AM 61.2039 -3.0384 89° East  Level FlightAware Approximate
Thu 01:24:00 AM 61.2064 -2.7434 89° East  Level FlightAware Approximate
Thu 01:25:00 AM 61.2082 -2.4484 89° East  Level FlightAware Approximate
Thu 01:26:00 AM 61.2094 -2.1534 89° East  Level FlightAware Approximate
Thu 01:27:00 AM 61.2100 -1.8584 90° East  Level FlightAware Approximate
Thu 01:28:00 AM 61.2099 -1.5633 90° East  Level FlightAware Approximate
Thu 01:29:00 AM 61.2092 -1.2683 90° East  Level FlightAware Approximate
Thu 01:30:00 AM 61.2078 -0.9733 90° East  Level FlightAware Approximate
Thu 01:31:00 AM 61.2058 -0.6783 91° East  Level FlightAware Approximate
Thu 01:32:00 AM 61.2032 -0.3834 91° East  Level FlightAware Approximate
Thu 01:33:00 AM 61.1994 -0.0886 96° East  Level FlightAware Approximate
Thu 01:34:00 AM 61.1837 0.2045 96° East  Level FlightAware Approximate
Thu 01:35:00 AM 61.1674 0.4973 96° East  Level FlightAware Approximate
Thu 01:36:00 AM 61.1504 0.7897 97° East  Level FlightAware Approximate
Thu 01:37:00 AM 61.1328 1.0819 97° East  Level FlightAware Approximate
Thu 01:38:00 AM 61.1146 1.3736 97° East  Level FlightAware Approximate
Thu 01:39:00 AM 61.0957 1.6651 97° East  Level FlightAware Approximate
Thu 01:40:00 AM 61.0762 1.9562 98° East  Level FlightAware Approximate
Thu 01:41:00 AM 61.0561 2.2470 98° East  Level FlightAware Approximate
Thu 01:42:00 AM 61.0374 2.5379 97° East  Level FlightAware Approximate
Thu 01:43:00 AM 61.0188 2.8287 97° East  Level FlightAware Approximate
Thu 01:44:00 AM 60.9997 3.1193 98° East  Level FlightAware Approximate
Thu 01:45:00 AM 60.9799 3.4094 98° East  Level FlightAware Approximate
Thu 01:46:00 AM 60.9595 3.6992 98° East  Level FlightAware Approximate
Thu 01:47:00 AM 60.9385 3.9886 98° East  Level FlightAware Approximate
Thu 01:48:00 AM 60.9169 4.2776 99° East  Level FlightAware Approximate
Thu 01:49:00 AM 60.8946 4.5662 99° East  Level FlightAware Approximate
Thu 01:50:00 AM 60.8718 4.8544 99° East  Level FlightAware Approximate
Thu 01:51:00 AM 60.8483 5.1422 99° East  Level FlightAware Approximate
Thu 01:52:00 AM 60.8242 5.4296 100° East  Level FlightAware Approximate
Thu 01:53:00 AM 60.7995 5.7165 100° East  Level FlightAware Approximate
Thu 01:54:00 AM 60.7742 6.0029 100° East  Level FlightAware Approximate
Thu 01:55:00 AM 60.7482 6.2890 100° East  Level FlightAware Approximate
Thu 01:56:00 AM 60.7216 6.5745 101° East  Level FlightAware Approximate
Thu 01:57:00 AM 60.6917 6.8582 106° East  Level FlightAware Approximate
Thu 01:58:00 AM 60.6519 7.1367 106° East  Level FlightAware Approximate
Thu 01:59:00 AM 60.6296 7.4228 101° East  Level FlightAware Approximate
Thu 02:00:00 AM 60.6025 7.7070 101° East  Level FlightAware Approximate
Thu 02:01:00 AM 60.5671 7.9867 102° East  Level FlightAware Approximate
Thu 02:02:00 AM 60.5367 8.2691 102° East  Level FlightAware Approximate
Thu 02:03:00 AM 60.5068 8.5513 102° East  Level FlightAware Approximate
Thu 02:04:00 AM 60.4764 8.8331 102° East  Level FlightAware Approximate
Thu 02:05:00 AM 60.4454 9.1144 102° East  Level FlightAware Approximate
Thu 02:06:00 AM 60.4139 9.3952 103° East  Level FlightAware Approximate
Thu 02:07:00 AM 60.3756 9.6719 108° East  Level FlightAware Approximate
Thu 02:08:00 AM 60.3385 9.9488 101° East  Level FlightAware Approximate
Thu 02:09:00 AM 60.3049 10.2276 104° East  Level FlightAware Approximate
Thu 02:10:00 AM 60.2747 10.5077 102° East  Level FlightAware Approximate
Thu 02:11:00 AM 60.2306 10.7775 101° East  Level FlightAware Approximate
Thu 02:12:00 AM 60.2026 11.0579 101° East  Level FlightAware Approximate
Thu 02:13:00 AM 60.2000 11.0833 101° East  Level FlightAware Approximate
Thu 02:14:00 AM 60.1939 11.1004 101° East  Level Estimated
Thu 02:15:00 AM 60.1939 11.1004 101° East  Level Estimated
Thu 02:16:00 AM 60.1939 11.1004 101° East  Level Estimated
Thu 02:17:00 AM 60.1939 11.1004 101° East  Level Estimated
Thu 02:18:00 AM 60.1939 11.1004 101° East  Level Estimated
Thu 02:19:00 AM 60.1939 11.1004 101° East  Level Estimated
Thu 02:20:00 AM 60.1939 11.1004 101° East  Level Estimated
Thu 02:21:00 AM 60.1939 11.1004 101° East  Level Estimated
Thu 02:22:00 AM 60.1939 11.1004 101° East  Level Estimated
Thu 02:23:00 AM 60.1939 11.1004 101° East  Level Estimated
Thu 02:24:00 AM 60.1939 11.1004 101° East  Level Estimated
Thu 02:25:00 AM 60.1939 11.1004 101° East  Level Estimated
Thu 02:26:00 AM 60.1939 11.1004 101° East  Level Estimated
Thu 02:27:00 AM 60.1939 11.1004 101° East  Level Estimated
Thu 02:28:00 AM 60.1939 11.1004 101° East  Level Estimated
Thu 02:29:00 AM 60.1939 11.1004 101° East  Level Estimated
Thu 02:30:00 AM 60.1939 11.1004 101° East  Level Estimated
Thu 02:31:00 AM 60.1939 11.1004 101° East  Level Estimated
Thu 02:32:00 AM 60.1939 11.1004 101° East  Level Estimated
Thu 02:33:00 AM 60.1939 11.1004 101° East  Level Estimated
Thu 02:34:00 AM 60.1939 11.1004 101° East  Level Estimated

Login

Don't have an account? Register now (free) for customized features, flight alerts, and more!